Current Weather

Laughlin/Bullhead Intl

Bullhead City, Arizona (KIFP)

Report from: Thursday, July 18, 2024 6:35 AM MST
Current time: Thursday, July 18, 2024 7:00 AM MST

Nearby weather – Weather history – Daily summaries
Weather forecast

Temperature34.0°C (93.2°F)
Heat index33.0°C (91.4°F)
Dew point13.0°C (55.4°F)
Winds 3 kts (1.5 m/s, 3.5 mph) Southeast (140°)
Visibility10 mi. (16.1 km)
Clouds Sky clear
Altimeter29.85 in.Hg (1011 mB)
Relative humidity28 %
Density altitude2,451 ft. (747 m)
Remarks Fully automated report
Automated weather observing station with precipitation discriminator
Flight conditions Visual Meteorological Conditions
Raw dataKIFP 181335Z AUTO 14003KT 10SM CLR 34/13 A2985 RMK AO2
An error has occurred. This application may no longer respond until reloaded. Reload 🗙